createdAt,value
2018-04-27T00:00:07.658Z,101288.84
2018-04-27T00:01:12.586Z,101285.41
2018-04-27T00:02:17.517Z,101287.14
2018-04-27T00:03:22.465Z,101288.00
2018-04-27T00:04:26.651Z,101288.84
2018-04-27T00:05:31.615Z,101285.02
2018-04-27T00:06:35.769Z,101282.02
2018-04-27T00:07:40.018Z,101287.08
2018-04-27T00:08:44.181Z,101284.57
2018-04-27T00:09:48.350Z,101285.41
2018-04-27T00:10:52.634Z,101281.16
2018-04-27T00:11:57.566Z,101284.59
2018-04-27T00:13:02.503Z,101284.59
2018-04-27T00:14:06.662Z,101282.48
2018-04-27T00:15:10.814Z,101284.61
2018-04-27T00:16:15.802Z,101286.71
2018-04-27T00:17:19.976Z,101280.38
2018-04-27T00:18:24.133Z,101279.49
2018-04-27T00:19:28.289Z,101282.44
2018-04-27T00:20:32.450Z,101276.10
2018-04-27T00:21:36.656Z,101277.78
2018-04-27T00:22:40.820Z,101272.29
2018-04-27T00:23:44.985Z,101272.28
2018-04-27T00:24:49.162Z,101278.66
2018-04-27T00:25:53.441Z,101279.11
2018-04-27T00:26:58.045Z,101274.44
2018-04-27T00:28:02.986Z,101268.06
2018-04-27T00:29:07.149Z,101268.46
2018-04-27T00:30:11.407Z,101262.95
2018-04-27T00:31:15.609Z,101269.34
2018-04-27T00:32:20.855Z,101271.45
2018-04-27T00:33:25.073Z,101271.90
2018-04-27T00:34:29.289Z,101269.39
2018-04-27T00:35:33.409Z,101270.67
2018-04-27T00:36:37.568Z,101271.11
2018-04-27T00:37:42.211Z,101271.51
2018-04-27T00:38:47.141Z,101266.84
2018-04-27T00:39:52.077Z,101272.34
2018-04-27T00:40:56.272Z,101263.85
2018-04-27T00:42:01.211Z,101269.39
2018-04-27T00:43:05.438Z,101268.55
2018-04-27T00:44:09.618Z,101269.00
2018-04-27T00:45:14.545Z,101262.62
2018-04-27T00:46:19.474Z,101262.62
2018-04-27T00:47:24.406Z,101265.17
2018-04-27T00:48:29.361Z,101265.61
2018-04-27T00:49:33.529Z,101263.05
2018-04-27T00:50:38.461Z,101258.79
2018-04-27T00:51:43.393Z,101256.20
2018-04-27T00:53:05.974Z,101255.80
2018-04-27T00:54:10.350Z,101254.92
2018-04-27T00:55:15.285Z,101256.63
2018-04-27T00:56:20.209Z,101254.92
2018-04-27T00:57:24.373Z,101253.25
2018-04-27T00:58:28.537Z,101252.81
2018-04-27T00:59:32.714Z,101249.86
2018-04-27T01:00:36.873Z,101256.64
2018-04-27T01:01:41.042Z,101250.27
2018-04-27T01:02:45.201Z,101252.38
2018-04-27T01:03:49.366Z,101249.42
2018-04-27T01:04:54.436Z,101251.97
2018-04-27T01:05:58.596Z,101248.55
2018-04-27T01:07:02.782Z,101250.27
2018-04-27T01:08:06.936Z,101246.87
2018-04-27T01:09:11.861Z,101246.83
2018-04-27T01:10:16.818Z,101246.39
2018-04-27T01:11:21.037Z,101243.89
2018-04-27T01:12:25.192Z,101237.52
2018-04-27T01:13:29.349Z,101243.05
2018-04-27T01:14:33.514Z,101243.05
2018-04-27T01:15:38.449Z,101245.16
2018-04-27T01:16:43.461Z,101240.11
2018-04-27T01:17:47.627Z,101239.23
2018-04-27T01:18:51.797Z,101233.30
2018-04-27T01:19:56.730Z,101231.62
2018-04-27T01:21:01.681Z,101235.89
2018-04-27T01:22:06.275Z,101234.18
2018-04-27T01:23:11.205Z,101238.00
2018-04-27T01:24:16.129Z,101229.52
2018-04-27T01:25:21.052Z,101233.83
2018-04-27T01:26:25.254Z,101233.39
2018-04-27T01:27:29.444Z,101236.38
2018-04-27T01:28:33.597Z,101231.23
2018-04-27T01:29:38.527Z,101235.89
2018-04-27T01:30:43.456Z,101232.07
2018-04-27T01:31:47.666Z,101234.18
2018-04-27T01:32:51.824Z,101228.25
2018-04-27T01:33:55.981Z,101229.95
2018-04-27T01:35:00.900Z,101227.37
2018-04-27T01:36:05.065Z,101229.08
2018-04-27T01:37:09.256Z,101229.92
2018-04-27T01:38:13.423Z,101232.47
2018-04-27T01:39:17.732Z,101233.73
2018-04-27T01:40:22.664Z,101234.13
2018-04-27T01:41:27.603Z,101229.46
2018-04-27T01:42:32.528Z,101229.03
2018-04-27T01:43:37.448Z,101223.92
2018-04-27T01:44:42.407Z,101227.31
2018-04-27T01:45:46.574Z,101225.20
2018-04-27T01:46:50.737Z,101226.48
2018-04-27T01:47:54.914Z,101227.75
2018-04-27T01:48:59.860Z,101225.20
2018-04-27T01:50:04.050Z,101229.47
2018-04-27T01:51:09.038Z,101228.59
2018-04-27T01:52:13.196Z,101229.42
2018-04-27T01:53:18.110Z,101221.77
2018-04-27T01:54:23.929Z,101222.20
2018-04-27T01:55:28.096Z,101221.33
2018-04-27T01:56:32.486Z,101226.03
2018-04-27T01:57:37.413Z,101222.20
2018-04-27T01:58:42.332Z,101226.86
2018-04-27T01:59:47.284Z,101221.37
2018-04-27T02:00:52.212Z,101223.92
2018-04-27T02:01:56.399Z,101222.20
2018-04-27T02:03:01.337Z,101218.34
2018-04-27T02:04:06.260Z,101214.06
2018-04-27T02:05:11.206Z,101213.21
2018-04-27T02:06:15.391Z,101214.05
2018-04-27T02:07:20.375Z,101205.96
2018-04-27T02:08:24.547Z,101210.66
2018-04-27T02:09:28.764Z,101205.56
2018-04-27T02:10:32.928Z,101206.41
2018-04-27T02:11:37.094Z,101208.95
2018-04-27T02:12:41.327Z,101208.56
2018-04-27T02:13:45.489Z,101215.79
2018-04-27T02:14:50.421Z,101208.17
2018-04-27T02:15:55.358Z,101212.02
2018-04-27T02:16:59.522Z,101210.78
2018-04-27T02:18:03.726Z,101209.91
2018-04-27T02:19:08.009Z,101212.06
2018-04-27T02:20:12.166Z,101211.62
2018-04-27T02:21:16.346Z,101209.11
2018-04-27T02:22:20.505Z,101207.41
2018-04-27T02:23:25.434Z,101208.28
2018-04-27T02:24:30.389Z,101204.02
2018-04-27T02:25:34.559Z,101204.91
2018-04-27T02:26:39.140Z,101200.24
2018-04-27T02:27:43.296Z,101201.08
2018-04-27T02:28:48.232Z,101198.93
2018-04-27T02:29:52.393Z,101196.86
2018-04-27T02:30:56.548Z,101198.13
2018-04-27T02:32:01.790Z,101195.59
2018-04-27T02:33:06.722Z,101202.40
2018-04-27T02:34:11.645Z,101196.42
2018-04-27T02:35:15.849Z,101195.59
2018-04-27T02:36:20.781Z,101197.30
2018-04-27T02:37:25.724Z,101195.19
2018-04-27T02:38:29.890Z,101196.91
2018-04-27T02:39:34.049Z,101190.98
2018-04-27T02:40:38.425Z,101193.53
2018-04-27T02:41:43.355Z,101193.96
2018-04-27T02:42:47.513Z,101193.13
2018-04-27T02:43:51.677Z,101191.42
2018-04-27T02:44:56.596Z,101187.16
2018-04-27T02:46:00.796Z,101192.25
2018-04-27T02:47:06.466Z,101190.54
2018-04-27T02:48:10.642Z,101189.30
2018-04-27T02:49:14.810Z,101187.63
2018-04-27T02:50:18.974Z,101188.07
2018-04-27T02:51:23.277Z,101185.55
2018-04-27T02:52:27.439Z,101184.69
2018-04-27T02:53:31.606Z,101186.39
2018-04-27T02:54:35.780Z,101186.80
2018-04-27T02:55:39.946Z,101183.41
2018-04-27T02:56:44.342Z,101182.53
2018-04-27T02:57:48.511Z,101182.53
2018-04-27T02:58:52.683Z,101177.44
2018-04-27T02:59:57.640Z,101182.53
2018-04-27T03:01:01.796Z,101182.14
2018-04-27T03:02:06.021Z,101184.69
2018-04-27T03:03:10.959Z,101180.02
2018-04-27T03:04:15.885Z,101174.56
2018-04-27T03:05:20.826Z,101175.84
2018-04-27T03:06:24.995Z,101181.77
2018-04-27T03:07:29.187Z,101175.41
2018-04-27T03:08:33.350Z,101180.02
2018-04-27T03:09:38.333Z,101177.05
2018-04-27T03:10:42.506Z,101180.86
2018-04-27T03:11:46.670Z,101180.46
2018-04-27T03:12:50.854Z,101180.43
2018-04-27T03:13:55.010Z,101180.42
2018-04-27T03:14:59.958Z,101179.16
2018-04-27T03:16:04.133Z,101181.70
2018-04-27T03:17:09.073Z,101186.83
2018-04-27T03:18:14.007Z,101184.28
2018-04-27T03:19:19.337Z,101183.45
2018-04-27T03:20:24.279Z,101182.61
2018-04-27T03:21:28.446Z,101179.19
2018-04-27T03:22:32.642Z,101185.16
2018-04-27T03:23:36.800Z,101177.91
2018-04-27T03:24:41.050Z,101182.17
2018-04-27T03:25:45.205Z,101187.70
2018-04-27T03:26:50.129Z,101181.33
2018-04-27T03:27:54.288Z,101177.51
2018-04-27T03:28:58.458Z,101174.97
2018-04-27T03:30:03.893Z,101177.91
2018-04-27T03:31:08.829Z,101176.64
2018-04-27T03:32:13.774Z,101175.33
2018-04-27T03:33:17.969Z,101182.53
2018-04-27T03:34:22.978Z,101174.05
2018-04-27T03:35:27.151Z,101179.16
2018-04-27T03:36:31.330Z,101176.20
2018-04-27T03:37:35.545Z,101177.48
2018-04-27T03:38:39.713Z,101176.17
2018-04-27T03:39:43.885Z,101172.75
2018-04-27T03:40:48.271Z,101174.05
2018-04-27T03:41:53.244Z,101171.06
2018-04-27T03:42:57.400Z,101173.62
2018-04-27T03:44:02.335Z,101172.74
2018-04-27T03:45:07.268Z,101171.91
2018-04-27T03:46:11.769Z,101166.80
2018-04-27T03:47:16.697Z,101165.10
2018-04-27T03:48:20.887Z,101168.92
2018-04-27T03:49:25.054Z,101166.38
2018-04-27T03:50:29.213Z,101165.53
2018-04-27T03:51:34.250Z,101163.83
2018-04-27T03:52:39.178Z,101156.17
2018-04-27T03:53:44.256Z,101158.72
2018-04-27T03:54:48.452Z,101160.00
2018-04-27T03:55:52.610Z,101160.00
2018-04-27T03:56:56.769Z,101161.27
2018-04-27T03:58:00.929Z,101158.33
2018-04-27T03:59:05.109Z,101158.72
2018-04-27T04:00:26.815Z,101155.30
2018-04-27T04:01:48.829Z,101156.61
2018-04-27T04:03:10.901Z,101153.23
2018-04-27T04:04:32.798Z,101152.80
2018-04-27T04:05:36.991Z,101157.05
2018-04-27T04:06:41.917Z,101154.95
2018-04-27T04:07:46.873Z,101147.30
2018-04-27T04:08:51.057Z,101153.27
2018-04-27T04:09:55.999Z,101149.86
2018-04-27T04:11:00.205Z,101144.80
2018-04-27T04:12:04.594Z,101151.56
2018-04-27T04:13:09.537Z,101149.89
2018-04-27T04:14:14.481Z,101151.16
2018-04-27T04:15:18.643Z,101149.89
2018-04-27T04:16:22.809Z,101150.73
2018-04-27T04:17:27.413Z,101148.62
2018-04-27T04:18:31.590Z,101149.89
2018-04-27T04:19:35.936Z,101148.62
2018-04-27T04:20:40.096Z,101149.05
2018-04-27T04:21:44.276Z,101146.08
2018-04-27T04:22:48.458Z,101150.33
2018-04-27T04:23:52.757Z,101151.61
2018-04-27T04:24:56.926Z,101151.23
2018-04-27T04:26:01.121Z,101151.67
2018-04-27T04:27:05.278Z,101149.56
2018-04-27T04:28:10.218Z,101154.65
2018-04-27T04:29:14.441Z,101147.84
2018-04-27T04:30:19.361Z,101148.28
2018-04-27T04:31:24.339Z,101145.73
2018-04-27T04:32:28.528Z,101147.85
2018-04-27T04:33:32.703Z,101146.58
2018-04-27T04:34:37.634Z,101154.22
2018-04-27T04:35:42.556Z,101147.85
2018-04-27T04:36:46.778Z,101150.83
2018-04-27T04:37:51.116Z,101147.41
2018-04-27T04:38:55.276Z,101149.55
2018-04-27T04:39:59.449Z,101149.13
2018-04-27T04:41:03.613Z,101141.88
2018-04-27T04:42:08.572Z,101139.34
2018-04-27T04:43:12.745Z,101146.11
2018-04-27T04:44:16.933Z,101141.84
2018-04-27T04:45:21.098Z,101139.70
2018-04-27T04:46:25.261Z,101136.32
2018-04-27T04:47:30.180Z,101134.20
2018-04-27T04:48:34.516Z,101134.20
2018-04-27T04:49:38.696Z,101142.69
2018-04-27T04:50:42.852Z,101141.81
2018-04-27T04:51:47.027Z,101138.43
2018-04-27T04:52:51.192Z,101144.80
2018-04-27T04:53:55.419Z,101146.08
2018-04-27T04:54:59.599Z,101143.08
2018-04-27T04:56:03.778Z,101144.36
2018-04-27T04:57:07.933Z,101142.64
2018-04-27T04:58:12.117Z,101140.89
2018-04-27T04:59:17.254Z,101146.41
2018-04-27T05:00:22.194Z,101145.98
2018-04-27T05:01:26.365Z,101146.82
2018-04-27T05:02:30.547Z,101143.83
2018-04-27T05:03:34.776Z,101149.32
2018-04-27T05:04:39.442Z,101140.78
2018-04-27T05:05:43.625Z,101140.78
2018-04-27T05:06:47.817Z,101144.60
2018-04-27T05:07:51.990Z,101145.83
2018-04-27T05:08:56.169Z,101144.11
2018-04-27T05:10:01.133Z,101141.16
2018-04-27T05:11:05.305Z,101142.00
2018-04-27T05:12:10.408Z,101140.78
2018-04-27T05:13:14.756Z,101139.46
2018-04-27T05:14:19.680Z,101142.45
2018-04-27T05:15:24.635Z,101138.23
2018-04-27T05:16:28.836Z,101139.90
2018-04-27T05:17:32.996Z,101135.19
2018-04-27T05:20:08.726Z,101139.83
2018-04-27T05:21:12.893Z,101136.00
2018-04-27T05:22:17.241Z,101136.83
2018-04-27T05:23:21.431Z,101133.41
2018-04-27T05:24:26.388Z,101135.12
2018-04-27T05:25:30.553Z,101133.33
2018-04-27T05:26:35.530Z,101136.72
2018-04-27T05:27:39.706Z,101135.92
2018-04-27T05:28:44.629Z,101138.05
2018-04-27T05:29:48.875Z,101136.76
2018-04-27T05:30:53.064Z,101137.59
2018-04-27T05:31:57.272Z,101140.52
2018-04-27T05:33:05.341Z,101136.25
2018-04-27T05:34:09.537Z,101135.33
2018-04-27T05:35:13.713Z,101131.08
2018-04-27T05:36:17.902Z,101131.47
2018-04-27T05:37:22.138Z,101131.48
2018-04-27T05:38:26.333Z,101132.30
2018-04-27T05:39:30.641Z,101135.25
2018-04-27T05:40:34.906Z,101135.61
2018-04-27T05:41:39.082Z,101126.66
2018-04-27T05:42:43.474Z,101131.69
2018-04-27T05:43:47.698Z,101127.48
2018-04-27T05:44:51.933Z,101128.28
2018-04-27T05:45:56.109Z,101131.14
2018-04-27T05:47:00.307Z,101130.59
2018-04-27T05:48:05.325Z,101131.11
2018-04-27T05:49:10.288Z,101130.21
2018-04-27T05:50:14.917Z,101128.11
2018-04-27T05:51:19.123Z,101130.30
2018-04-27T05:52:23.304Z,101134.56
2018-04-27T05:53:28.293Z,101128.91
2018-04-27T05:54:32.611Z,101127.16
2018-04-27T05:55:37.349Z,101127.93
2018-04-27T05:56:41.481Z,101131.28
2018-04-27T05:57:46.431Z,101130.54
2018-04-27T05:58:50.638Z,101127.83
2018-04-27T05:59:54.801Z,101124.08
2018-04-27T06:00:59.241Z,101124.55
2018-04-27T06:02:04.184Z,101118.59
2018-04-27T06:03:08.365Z,101122.34
2018-04-27T06:04:14.246Z,101117.95
2018-04-27T06:05:18.425Z,101121.27
2018-04-27T06:06:22.608Z,101122.00
2018-04-27T06:07:26.829Z,101123.25
2018-04-27T06:08:30.989Z,101118.66
2018-04-27T06:09:35.169Z,101118.27
2018-04-27T06:10:39.343Z,101117.83
2018-04-27T06:11:43.525Z,101121.75
2018-04-27T06:12:48.501Z,101121.67
2018-04-27T06:13:52.807Z,101121.31
2018-04-27T06:14:57.004Z,101125.22
2018-04-27T06:16:01.278Z,101124.29
2018-04-27T06:17:05.472Z,101122.48
2018-04-27T06:18:10.417Z,101118.58
2018-04-27T06:19:14.648Z,101118.95
2018-04-27T06:20:18.855Z,101111.28
2018-04-27T06:21:23.028Z,101109.62
2018-04-27T06:22:27.954Z,101109.17
2018-04-27T06:23:32.887Z,101109.97
2018-04-27T06:24:37.848Z,101111.87
2018-04-27T06:25:42.116Z,101112.23
2018-04-27T06:26:46.451Z,101101.52
2018-04-27T06:27:50.670Z,101099.70
2018-04-27T06:28:54.849Z,101097.02
2018-04-27T06:30:05.885Z,101101.17
2018-04-27T06:31:10.074Z,101100.08
2018-04-27T06:32:14.762Z,101099.07
2018-04-27T06:33:19.777Z,101098.03
2018-04-27T06:34:24.714Z,101099.09
2018-04-27T06:35:29.656Z,101098.95
2018-04-27T06:36:34.618Z,101099.61
2018-04-27T06:37:38.987Z,101101.18
2018-04-27T06:38:43.909Z,101102.88
2018-04-27T06:39:48.095Z,101104.47
2018-04-27T06:40:52.292Z,101101.27
2018-04-27T06:41:56.487Z,101099.21
2018-04-27T06:43:00.773Z,101098.42
2018-04-27T06:44:04.982Z,101090.37
2018-04-27T06:45:09.225Z,101097.56
2018-04-27T06:46:13.509Z,101089.23
2018-04-27T06:47:17.714Z,101086.84
2018-04-27T06:48:23.190Z,101088.42
2018-04-27T06:49:27.379Z,101088.89
2018-04-27T06:50:31.599Z,101084.19
2018-04-27T06:51:35.822Z,101093.00
2018-04-27T06:52:40.108Z,101086.38
2018-04-27T06:53:44.344Z,101095.19
2018-04-27T06:54:48.627Z,101091.23
2018-04-27T06:55:52.854Z,101090.81
2018-04-27T06:56:57.190Z,101093.59
2018-04-27T06:58:01.463Z,101089.44
2018-04-27T06:59:06.246Z,101092.23
2018-04-27T07:00:10.805Z,101094.76
2018-04-27T07:01:15.029Z,101090.70
2018-04-27T07:02:19.246Z,101088.42
2018-04-27T07:03:23.473Z,101086.16
2018-04-27T07:04:27.711Z,101087.06
2018-04-27T07:05:33.498Z,101084.31
2018-04-27T07:06:37.914Z,101080.36
2018-04-27T07:07:42.115Z,101081.80
2018-04-27T07:08:47.086Z,101081.25
2018-04-27T07:09:51.289Z,101079.19
2018-04-27T07:10:55.491Z,101079.80
2018-04-27T07:11:59.853Z,101080.34
2018-04-27T07:13:04.056Z,101080.61
2018-04-27T07:14:08.265Z,101076.77
2018-04-27T07:15:12.470Z,101076.31
2018-04-27T07:16:16.650Z,101084.77
2018-04-27T07:17:20.860Z,101091.52
2018-04-27T07:18:25.244Z,101086.56
2018-04-27T07:19:30.285Z,101083.81
2018-04-27T07:20:34.445Z,101089.84
2018-04-27T07:21:38.706Z,101088.46
2018-04-27T07:22:42.883Z,101089.55
2018-04-27T07:23:47.236Z,101087.20
2018-04-27T07:24:51.414Z,101085.73
2018-04-27T07:25:55.588Z,101087.23
2018-04-27T07:26:59.798Z,101085.74
2018-04-27T07:28:03.997Z,101084.25
2018-04-27T07:29:08.192Z,101088.16
2018-04-27T07:30:12.393Z,101083.00
2018-04-27T07:31:17.337Z,101084.29
2018-04-27T07:32:21.525Z,101084.22
2018-04-27T07:33:26.802Z,101081.37
2018-04-27T07:34:31.055Z,101080.25
2018-04-27T07:35:36.032Z,101084.06
2018-04-27T07:36:40.241Z,101085.89
2018-04-27T07:37:44.436Z,101080.49
2018-04-27T07:38:48.671Z,101079.82
2018-04-27T07:39:52.854Z,101079.23
2018-04-27T07:40:57.046Z,101082.08
2018-04-27T07:42:02.021Z,101083.09
2018-04-27T07:43:06.204Z,101080.28
2018-04-27T07:44:10.548Z,101084.29
2018-04-27T07:45:14.913Z,101083.64
2018-04-27T07:46:19.201Z,101082.08
2018-04-27T07:47:23.434Z,101087.75
2018-04-27T07:48:28.481Z,101084.98
2018-04-27T07:49:32.762Z,101086.78
2018-04-27T07:50:36.970Z,101083.81
2018-04-27T07:51:41.206Z,101078.52
2018-04-27T07:52:46.323Z,101077.28
2018-04-27T07:53:51.425Z,101074.79
2018-04-27T07:54:57.190Z,101073.35
2018-04-27T07:56:02.189Z,101071.65
2018-04-27T07:57:06.490Z,101074.72
2018-04-27T07:58:10.731Z,101078.13
2018-04-27T07:59:15.001Z,101072.73
2018-04-27T08:00:19.427Z,101078.11
2018-04-27T08:01:23.681Z,101072.85
2018-04-27T08:02:28.034Z,101074.41
2018-04-27T08:03:32.157Z,101075.34
2018-04-27T08:04:36.348Z,101072.27
2018-04-27T08:05:40.531Z,101073.34
2018-04-27T08:06:45.676Z,101068.23
2018-04-27T08:07:50.654Z,101075.31
2018-04-27T08:08:54.928Z,101074.58
2018-04-27T08:09:59.105Z,101070.27
2018-04-27T08:11:03.352Z,101066.80
2018-04-27T08:12:07.591Z,101069.75
2018-04-27T08:13:11.801Z,101072.66
2018-04-27T08:14:16.158Z,101072.01
2018-04-27T08:15:20.369Z,101070.83
2018-04-27T08:16:24.619Z,101073.87
2018-04-27T08:17:29.644Z,101068.98
2018-04-27T08:18:33.857Z,101067.14
2018-04-27T08:19:38.576Z,101059.32
2018-04-27T08:20:42.776Z,101062.44
2018-04-27T08:21:47.818Z,101059.50
2018-04-27T08:22:52.034Z,101058.72
2018-04-27T08:23:56.316Z,101064.05
2018-04-27T08:25:00.545Z,101060.11
2018-04-27T08:26:04.740Z,101064.09
2018-04-27T08:27:09.717Z,101058.03
2018-04-27T08:28:14.063Z,101054.20
2018-04-27T08:29:18.277Z,101058.50
2018-04-27T08:30:22.542Z,101062.09
2018-04-27T08:31:26.742Z,101060.09
2018-04-27T08:32:30.996Z,101056.23
2018-04-27T08:33:35.205Z,101060.63
2018-04-27T08:34:39.412Z,101055.56
2018-04-27T08:35:43.630Z,101053.04
2018-04-27T08:36:47.793Z,101051.48
2018-04-27T08:37:52.009Z,101042.91
2018-04-27T08:38:56.194Z,101049.55
2018-04-27T08:40:01.167Z,101040.23
2018-04-27T08:41:05.372Z,101046.85
2018-04-27T08:42:09.572Z,101048.05
2018-04-27T08:43:13.800Z,101046.73
2018-04-27T08:44:18.003Z,101045.70
2018-04-27T08:45:22.172Z,101049.92
2018-04-27T08:46:27.222Z,101048.69
2018-04-27T08:47:31.431Z,101046.17
2018-04-27T08:48:35.604Z,101052.95
2018-04-27T08:49:40.550Z,101044.38
2018-04-27T08:50:45.596Z,101043.94
2018-04-27T08:51:50.620Z,101045.54
2018-04-27T08:52:55.576Z,101043.36
2018-04-27T08:53:59.786Z,101047.93
2018-04-27T08:55:03.985Z,101045.27
2018-04-27T08:56:08.189Z,101042.32
2018-04-27T08:57:12.433Z,101040.09
2018-04-27T08:58:16.689Z,101032.33
2018-04-27T08:59:20.925Z,101034.70
2018-04-27T09:00:25.955Z,101033.73
2018-04-27T09:01:30.140Z,101039.04
2018-04-27T09:02:35.290Z,101038.06
2018-04-27T09:03:40.225Z,101035.05
2018-04-27T09:04:44.425Z,101038.54
2018-04-27T09:05:49.401Z,101043.78
2018-04-27T09:06:53.568Z,101042.33
2018-04-27T09:07:58.529Z,101042.84
2018-04-27T09:09:02.711Z,101042.48
2018-04-27T09:10:06.896Z,101045.62
2018-04-27T09:11:11.871Z,101046.80
2018-04-27T09:12:16.109Z,101046.23
2018-04-27T09:13:20.273Z,101039.17
2018-04-27T09:14:24.439Z,101048.70
2018-04-27T09:15:28.628Z,101047.55
2018-04-27T09:16:32.813Z,101040.00
2018-04-27T09:17:37.013Z,101043.44
2018-04-27T09:18:41.185Z,101049.01
2018-04-27T09:19:45.360Z,101042.70
2018-04-27T09:20:49.544Z,101047.56
2018-04-27T09:21:53.802Z,101046.95
2018-04-27T09:22:57.982Z,101041.30
2018-04-27T09:24:02.278Z,101034.41
2018-04-27T09:25:06.444Z,101038.83
2018-04-27T09:26:10.633Z,101041.11
2018-04-27T09:27:15.004Z,101037.67
2018-04-27T09:28:20.045Z,101043.53
2018-04-27T09:29:24.208Z,101043.66
2018-04-27T09:30:28.372Z,101044.36
2018-04-27T09:31:32.558Z,101043.82
2018-04-27T09:32:37.532Z,101035.86
2018-04-27T09:33:41.902Z,101044.68
2018-04-27T09:34:46.831Z,101037.86
2018-04-27T09:35:50.994Z,101040.16
2018-04-27T09:36:55.172Z,101041.27
2018-04-27T09:37:59.336Z,101048.06
2018-04-27T09:39:03.552Z,101046.41
2018-04-27T09:40:09.274Z,101046.44
2018-04-27T09:41:13.498Z,101040.38
2018-04-27T09:42:17.702Z,101041.44
2018-04-27T09:43:22.680Z,101040.87
2018-04-27T09:44:26.903Z,101040.36
2018-04-27T09:45:31.081Z,101041.42
2018-04-27T09:46:36.140Z,101034.25
2018-04-27T09:47:40.396Z,101047.31
2018-04-27T09:48:44.725Z,101044.84
2018-04-27T09:49:48.932Z,101043.91
2018-04-27T09:50:53.132Z,101041.77
2018-04-27T09:51:57.333Z,101044.58
2018-04-27T09:53:01.526Z,101043.09
2018-04-27T09:54:05.907Z,101039.34
2018-04-27T09:55:10.849Z,101033.48
2018-04-27T09:56:15.087Z,101030.03
2018-04-27T09:57:19.273Z,101026.31
2018-04-27T09:58:23.461Z,101022.86
2018-04-27T09:59:28.477Z,101023.87
2018-04-27T10:00:33.446Z,101021.20
2018-04-27T10:01:37.617Z,101013.95
2018-04-27T10:02:42.568Z,101013.80
2018-04-27T10:03:46.760Z,101016.25
2018-04-27T10:04:51.725Z,101013.55
2018-04-27T10:05:55.900Z,101005.15
2018-04-27T10:07:00.874Z,101011.66
2018-04-27T10:08:05.088Z,101012.89
2018-04-27T10:09:09.268Z,101006.65
2018-04-27T10:10:13.520Z,101002.92
2018-04-27T10:11:17.712Z,101003.91
2018-04-27T10:12:21.884Z,101004.70
2018-04-27T10:13:26.880Z,101001.30
2018-04-27T10:14:31.097Z,101000.91
2018-04-27T10:15:35.269Z,100998.84
2018-04-27T10:16:39.431Z,100998.53
2018-04-27T10:17:44.390Z,100997.18
2018-04-27T10:18:48.562Z,100990.03
2018-04-27T10:19:53.192Z,100992.92
2018-04-27T10:20:58.164Z,100988.52
2018-04-27T10:22:02.356Z,100987.48
2018-04-27T10:23:06.524Z,100988.56
2018-04-27T10:24:12.194Z,100991.05
2018-04-27T10:25:17.171Z,100986.31
2018-04-27T10:26:22.177Z,100983.56
2018-04-27T10:27:26.355Z,100984.85
2018-04-27T10:28:31.292Z,100977.32
2018-04-27T10:29:36.243Z,100976.14
2018-04-27T10:30:40.441Z,100978.81
2018-04-27T10:31:44.607Z,100977.88
2018-04-27T10:32:48.777Z,100967.09
2018-04-27T10:33:52.946Z,100974.40
2018-04-27T10:34:57.110Z,100975.94
2018-04-27T10:36:01.318Z,100981.06
2018-04-27T10:37:05.505Z,100978.25
2018-04-27T10:38:09.689Z,100975.52
2018-04-27T10:39:14.648Z,100977.73
2018-04-27T10:40:18.817Z,100974.55
2018-04-27T10:41:22.998Z,100974.03
2018-04-27T10:42:27.676Z,100966.72
2018-04-27T10:43:31.849Z,100973.12
2018-04-27T10:44:37.573Z,100979.72
2018-04-27T10:45:41.760Z,100971.34
2018-04-27T10:46:45.948Z,100966.00
2018-04-27T10:47:50.983Z,100966.57
2018-04-27T10:48:55.177Z,100961.00
2018-04-27T10:50:00.140Z,100959.86
2018-04-27T10:51:04.306Z,100955.67
2018-04-27T10:52:09.290Z,100955.06
2018-04-27T10:53:13.675Z,100953.13
2018-04-27T10:54:18.651Z,100950.92
2018-04-27T10:55:22.846Z,100949.56
2018-04-27T10:56:27.061Z,100946.59
2018-04-27T10:57:31.332Z,100954.05
2018-04-27T10:58:36.318Z,100949.69
2018-04-27T10:59:40.528Z,100952.81
2018-04-27T11:00:44.756Z,100951.44
2018-04-27T11:01:50.441Z,100949.44
2018-04-27T11:02:54.660Z,100949.79
2018-04-27T11:03:58.860Z,100942.62
2018-04-27T11:05:03.185Z,100941.76
2018-04-27T11:06:07.381Z,100946.22
2018-04-27T11:07:11.564Z,100935.92
2018-04-27T11:08:15.778Z,100941.49
2018-04-27T11:09:20.741Z,100934.61
2018-04-27T11:10:24.960Z,100939.23
2018-04-27T11:11:29.199Z,100939.70
2018-04-27T11:12:33.421Z,100933.17
2018-04-27T11:13:38.176Z,100935.67
2018-04-27T11:14:43.182Z,100929.82
2018-04-27T11:15:48.894Z,100925.72
2018-04-27T11:16:53.492Z,100919.51
2018-04-27T11:17:58.120Z,100917.44
2018-04-27T11:19:02.492Z,100917.00
2018-04-27T11:20:07.538Z,100912.72
2018-04-27T11:21:11.668Z,100907.47
2018-04-27T11:22:15.864Z,100922.91
2018-04-27T11:23:20.075Z,100920.23
2018-04-27T11:24:25.604Z,100919.55
2018-04-27T11:25:36.412Z,100918.41
2018-04-27T11:26:40.615Z,100917.65
2018-04-27T11:27:44.825Z,100919.89
2018-04-27T11:28:49.069Z,100914.44
2018-04-27T11:29:53.293Z,100912.75
2018-04-27T11:30:57.456Z,100912.94
2018-04-27T11:32:03.109Z,100919.52
2018-04-27T11:33:07.289Z,100914.30
2018-04-27T11:34:11.457Z,100914.59
2018-04-27T11:35:15.861Z,100907.59
2018-04-27T11:36:19.980Z,100912.56
2018-04-27T11:37:24.170Z,100908.75
2018-04-27T11:38:28.365Z,100907.48
2018-04-27T11:39:32.536Z,100900.49
2018-04-27T11:40:37.616Z,100904.91
2018-04-27T11:41:41.895Z,100895.13
2018-04-27T11:42:46.080Z,100893.59
2018-04-27T11:43:51.034Z,100900.89
2018-04-27T11:44:55.197Z,100894.78
2018-04-27T11:45:59.427Z,100901.13
2018-04-27T11:47:05.201Z,100906.86
2018-04-27T11:48:10.160Z,100905.20
2018-04-27T11:49:14.480Z,100900.86
2018-04-27T11:50:18.710Z,100903.05
2018-04-27T11:51:22.970Z,100899.31
2018-04-27T11:52:27.194Z,100903.73
2018-04-27T11:53:31.402Z,100897.63
2018-04-27T11:54:35.601Z,100886.01
2018-04-27T11:55:39.859Z,100883.59
2018-04-27T11:56:44.063Z,100876.24
2018-04-27T11:57:48.261Z,100874.63
2018-04-27T11:58:52.598Z,100869.09
2018-04-27T11:59:56.809Z,100867.69
2018-04-27T12:01:01.065Z,100869.47
2018-04-27T12:02:06.046Z,100865.24
2018-04-27T12:03:10.244Z,100865.24
2018-04-27T12:04:14.440Z,100856.53
2018-04-27T12:05:18.663Z,100849.14
2018-04-27T12:06:22.895Z,100846.58
2018-04-27T12:07:27.081Z,100841.62
2018-04-27T12:08:31.323Z,100837.89
2018-04-27T12:09:37.018Z,100837.63
2018-04-27T12:10:41.276Z,100838.22
2018-04-27T12:11:45.568Z,100831.09
2018-04-27T12:12:49.764Z,100825.30
2018-04-27T12:13:53.969Z,100829.39
2018-04-27T12:14:58.168Z,100823.14
2018-04-27T12:16:02.377Z,100819.69
2018-04-27T12:17:06.584Z,100809.24
2018-04-27T12:18:11.536Z,100809.08